sensor_id;sensor_type;location;lat;lon;timestamp;P1;durP1;ratioP1;P2;durP2;ratioP2
11823;SDS011;5969;50.780;7.726;2023-02-08T00:01:30;20.42;;;11.68;;
11823;SDS011;5969;50.780;7.726;2023-02-08T00:04:00;14.57;;;9.60;;
11823;SDS011;5969;50.780;7.726;2023-02-08T00:06:28;15.60;;;9.77;;
11823;SDS011;5969;50.780;7.726;2023-02-08T00:08:55;11.77;;;9.00;;
11823;SDS011;5969;50.780;7.726;2023-02-08T00:11:25;14.82;;;9.85;;
11823;SDS011;5969;50.780;7.726;2023-02-08T00:13:55;14.90;;;8.98;;
11823;SDS011;5969;50.780;7.726;2023-02-08T00:16:23;15.20;;;8.65;;
11823;SDS011;5969;50.780;7.726;2023-02-08T00:18:51;14.23;;;9.32;;
11823;SDS011;5969;50.780;7.726;2023-02-08T00:21:21;20.95;;;9.55;;
11823;SDS011;5969;50.780;7.726;2023-02-08T00:23:49;16.08;;;9.88;;
11823;SDS011;5969;50.780;7.726;2023-02-08T00:26:17;17.55;;;9.60;;
11823;SDS011;5969;50.780;7.726;2023-02-08T00:28:44;14.82;;;9.40;;
11823;SDS011;5969;50.780;7.726;2023-02-08T00:31:12;12.32;;;8.10;;
11823;SDS011;5969;50.780;7.726;2023-02-08T00:33:39;12.20;;;7.72;;
11823;SDS011;5969;50.780;7.726;2023-02-08T00:36:07;11.70;;;7.63;;
11823;SDS011;5969;50.780;7.726;2023-02-08T00:38:38;11.45;;;8.35;;
11823;SDS011;5969;50.780;7.726;2023-02-08T00:41:05;11.98;;;8.00;;
11823;SDS011;5969;50.780;7.726;2023-02-08T00:43:33;10.85;;;7.25;;
11823;SDS011;5969;50.780;7.726;2023-02-08T00:46:00;10.52;;;6.72;;
11823;SDS011;5969;50.780;7.726;2023-02-08T00:48:28;12.13;;;7.32;;
11823;SDS011;5969;50.780;7.726;2023-02-08T00:50:56;11.48;;;7.28;;
11823;SDS011;5969;50.780;7.726;2023-02-08T00:53:27;12.07;;;7.28;;
11823;SDS011;5969;50.780;7.726;2023-02-08T00:55:56;10.88;;;7.25;;
11823;SDS011;5969;50.780;7.726;2023-02-08T00:58:27;10.48;;;7.10;;
11823;SDS011;5969;50.780;7.726;2023-02-08T01:00:56;11.02;;;7.30;;
11823;SDS011;5969;50.780;7.726;2023-02-08T01:03:24;11.80;;;7.40;;
11823;SDS011;5969;50.780;7.726;2023-02-08T01:05:58;9.82;;;7.13;;
11823;SDS011;5969;50.780;7.726;2023-02-08T01:08:26;12.52;;;8.25;;
11823;SDS011;5969;50.780;7.726;2023-02-08T01:11:02;12.45;;;8.85;;
11823;SDS011;5969;50.780;7.726;2023-02-08T01:13:32;11.18;;;8.55;;
11823;SDS011;5969;50.780;7.726;2023-02-08T01:16:07;13.30;;;8.75;;
11823;SDS011;5969;50.780;7.726;2023-02-08T01:18:37;10.65;;;7.05;;
11823;SDS011;5969;50.780;7.726;2023-02-08T01:21:05;10.70;;;7.38;;
11823;SDS011;5969;50.780;7.726;2023-02-08T01:23:37;9.95;;;6.55;;
11823;SDS011;5969;50.780;7.726;2023-02-08T01:26:07;9.68;;;7.25;;
11823;SDS011;5969;50.780;7.726;2023-02-08T01:28:35;10.30;;;7.15;;
11823;SDS011;5969;50.780;7.726;2023-02-08T01:31:04;10.27;;;6.93;;
11823;SDS011;5969;50.780;7.726;2023-02-08T01:33:32;8.70;;;6.25;;
11823;SDS011;5969;50.780;7.726;2023-02-08T01:36:03;11.40;;;7.20;;
11823;SDS011;5969;50.780;7.726;2023-02-08T01:38:31;9.85;;;6.78;;
11823;SDS011;5969;50.780;7.726;2023-02-08T01:40:59;12.05;;;8.40;;
11823;SDS011;5969;50.780;7.726;2023-02-08T01:43:30;12.45;;;8.10;;
11823;SDS011;5969;50.780;7.726;2023-02-08T01:46:00;12.30;;;7.93;;
11823;SDS011;5969;50.780;7.726;2023-02-08T01:48:28;11.18;;;8.10;;
11823;SDS011;5969;50.780;7.726;2023-02-08T01:51:02;10.25;;;7.70;;
11823;SDS011;5969;50.780;7.726;2023-02-08T01:53:33;11.43;;;8.32;;
11823;SDS011;5969;50.780;7.726;2023-02-08T01:56:03;13.35;;;8.50;;
11823;SDS011;5969;50.780;7.726;2023-02-08T01:58:36;11.25;;;8.40;;
11823;SDS011;5969;50.780;7.726;2023-02-08T02:01:06;12.00;;;8.65;;
11823;SDS011;5969;50.780;7.726;2023-02-08T02:03:34;12.63;;;8.80;;
11823;SDS011;5969;50.780;7.726;2023-02-08T02:06:04;13.63;;;7.97;;
11823;SDS011;5969;50.780;7.726;2023-02-08T02:08:37;12.43;;;8.10;;
11823;SDS011;5969;50.780;7.726;2023-02-08T02:11:12;9.85;;;7.90;;
11823;SDS011;5969;50.780;7.726;2023-02-08T02:13:42;13.20;;;8.10;;
11823;SDS011;5969;50.780;7.726;2023-02-08T02:16:12;13.18;;;8.30;;
11823;SDS011;5969;50.780;7.726;2023-02-08T02:18:46;11.48;;;7.88;;
11823;SDS011;5969;50.780;7.726;2023-02-08T02:21:22;10.38;;;7.70;;
11823;SDS011;5969;50.780;7.726;2023-02-08T02:24:10;10.75;;;7.38;;
11823;SDS011;5969;50.780;7.726;2023-02-08T02:29:58;10.18;;;7.07;;
11823;SDS011;5969;50.780;7.726;2023-02-08T02:33:04;10.70;;;7.68;;
11823;SDS011;5969;50.780;7.726;2023-02-08T02:35:55;11.45;;;8.05;;
11823;SDS011;5969;50.780;7.726;2023-02-08T02:38:28;10.48;;;7.38;;
11823;SDS011;5969;50.780;7.726;2023-02-08T02:41:14;11.70;;;8.00;;
11823;SDS011;5969;50.780;7.726;2023-02-08T02:44:02;12.77;;;8.20;;
11823;SDS011;5969;50.780;7.726;2023-02-08T02:46:39;10.55;;;8.15;;
11823;SDS011;5969;50.780;7.726;2023-02-08T02:49:23;11.93;;;8.20;;
11823;SDS011;5969;50.780;7.726;2023-02-08T02:52:00;11.52;;;7.15;;
11823;SDS011;5969;50.780;7.726;2023-02-08T02:54:37;11.30;;;7.70;;
11823;SDS011;5969;50.780;7.726;2023-02-08T02:57:11;10.95;;;8.13;;
11823;SDS011;5969;50.780;7.726;2023-02-08T02:59:42;11.38;;;7.80;;
11823;SDS011;5969;50.780;7.726;2023-02-08T03:02:11;12.93;;;8.27;;
11823;SDS011;5969;50.780;7.726;2023-02-08T03:04:49;13.00;;;8.65;;
11823;SDS011;5969;50.780;7.726;2023-02-08T03:07:36;9.98;;;7.43;;
11823;SDS011;5969;50.780;7.726;2023-02-08T03:10:23;12.10;;;8.15;;
11823;SDS011;5969;50.780;7.726;2023-02-08T03:13:02;11.15;;;7.90;;
11823;SDS011;5969;50.780;7.726;2023-02-08T03:15:37;12.30;;;8.68;;
11823;SDS011;5969;50.780;7.726;2023-02-08T03:18:15;11.48;;;8.20;;
11823;SDS011;5969;50.780;7.726;2023-02-08T03:20:52;13.48;;;8.32;;
11823;SDS011;5969;50.780;7.726;2023-02-08T03:23:29;11.25;;;8.15;;
11823;SDS011;5969;50.780;7.726;2023-02-08T03:26:00;11.35;;;7.43;;
11823;SDS011;5969;50.780;7.726;2023-02-08T03:28:33;11.30;;;7.88;;
11823;SDS011;5969;50.780;7.726;2023-02-08T03:31:07;13.73;;;8.30;;
11823;SDS011;5969;50.780;7.726;2023-02-08T03:33:47;12.45;;;8.15;;
11823;SDS011;5969;50.780;7.726;2023-02-08T03:36:28;10.65;;;8.25;;
11823;SDS011;5969;50.780;7.726;2023-02-08T03:39:04;12.20;;;7.85;;
11823;SDS011;5969;50.780;7.726;2023-02-08T03:41:41;12.52;;;8.30;;
11823;SDS011;5969;50.780;7.726;2023-02-08T03:44:19;10.90;;;7.80;;
11823;SDS011;5969;50.780;7.726;2023-02-08T03:47:02;10.02;;;7.65;;
11823;SDS011;5969;50.780;7.726;2023-02-08T03:49:35;13.82;;;8.73;;
11823;SDS011;5969;50.780;7.726;2023-02-08T03:52:20;11.80;;;8.32;;
11823;SDS011;5969;50.780;7.726;2023-02-08T03:54:53;11.85;;;7.70;;
11823;SDS011;5969;50.780;7.726;2023-02-08T03:57:25;12.05;;;7.82;;
11823;SDS011;5969;50.780;7.726;2023-02-08T03:59:55;11.85;;;7.28;;
11823;SDS011;5969;50.780;7.726;2023-02-08T04:02:26;12.70;;;8.68;;
11823;SDS011;5969;50.780;7.726;2023-02-08T04:04:55;12.70;;;8.20;;
11823;SDS011;5969;50.780;7.726;2023-02-08T04:07:28;14.43;;;9.10;;
11823;SDS011;5969;50.780;7.726;2023-02-08T04:09:56;11.52;;;8.15;;
11823;SDS011;5969;50.780;7.726;2023-02-08T04:12:24;12.30;;;7.82;;
11823;SDS011;5969;50.780;7.726;2023-02-08T04:14:51;12.43;;;8.15;;
11823;SDS011;5969;50.780;7.726;2023-02-08T04:17:24;12.55;;;8.63;;
11823;SDS011;5969;50.780;7.726;2023-02-08T04:19:56;13.60;;;8.82;;
11823;SDS011;5969;50.780;7.726;2023-02-08T04:22:24;14.57;;;8.75;;
11823;SDS011;5969;50.780;7.726;2023-02-08T04:24:53;11.95;;;8.57;;
11823;SDS011;5969;50.780;7.726;2023-02-08T04:27:21;11.32;;;8.50;;
11823;SDS011;5969;50.780;7.726;2023-02-08T04:29:48;13.30;;;8.25;;
11823;SDS011;5969;50.780;7.726;2023-02-08T04:32:18;12.93;;;8.10;;
11823;SDS011;5969;50.780;7.726;2023-02-08T04:34:46;11.98;;;8.30;;
11823;SDS011;5969;50.780;7.726;2023-02-08T04:37:17;14.00;;;8.80;;
11823;SDS011;5969;50.780;7.726;2023-02-08T04:39:46;13.10;;;8.43;;
11823;SDS011;5969;50.780;7.726;2023-02-08T04:42:13;12.20;;;7.50;;
11823;SDS011;5969;50.780;7.726;2023-02-08T04:44:41;13.20;;;8.18;;
11823;SDS011;5969;50.780;7.726;2023-02-08T04:47:08;11.55;;;7.97;;
11823;SDS011;5969;50.780;7.726;2023-02-08T04:49:36;15.85;;;8.38;;
11823;SDS011;5969;50.780;7.726;2023-02-08T04:52:05;11.27;;;7.25;;
11823;SDS011;5969;50.780;7.726;2023-02-08T04:54:33;10.70;;;8.05;;
11823;SDS011;5969;50.780;7.726;2023-02-08T04:57:03;10.85;;;7.72;;
11823;SDS011;5969;50.780;7.726;2023-02-08T04:59:33;11.75;;;7.53;;
11823;SDS011;5969;50.780;7.726;2023-02-08T05:02:01;10.35;;;7.32;;
11823;SDS011;5969;50.780;7.726;2023-02-08T05:04:29;10.55;;;7.88;;
11823;SDS011;5969;50.780;7.726;2023-02-08T05:06:57;12.98;;;8.25;;
11823;SDS011;5969;50.780;7.726;2023-02-08T05:09:28;11.40;;;8.40;;
11823;SDS011;5969;50.780;7.726;2023-02-08T05:11:55;12.63;;;7.60;;
11823;SDS011;5969;50.780;7.726;2023-02-08T05:14:24;13.15;;;8.65;;
11823;SDS011;5969;50.780;7.726;2023-02-08T05:16:52;10.13;;;7.32;;
11823;SDS011;5969;50.780;7.726;2023-02-08T05:19:20;10.73;;;7.43;;
11823;SDS011;5969;50.780;7.726;2023-02-08T05:21:47;10.90;;;7.43;;
11823;SDS011;5969;50.780;7.726;2023-02-08T05:24:15;12.73;;;8.80;;
11823;SDS011;5969;50.780;7.726;2023-02-08T05:26:45;17.17;;;9.93;;
11823;SDS011;5969;50.780;7.726;2023-02-08T05:29:14;12.80;;;8.70;;
11823;SDS011;5969;50.780;7.726;2023-02-08T05:31:43;13.05;;;7.82;;
11823;SDS011;5969;50.780;7.726;2023-02-08T05:34:11;13.07;;;9.05;;
11823;SDS011;5969;50.780;7.726;2023-02-08T05:36:39;10.95;;;7.03;;
11823;SDS011;5969;50.780;7.726;2023-02-08T05:39:06;11.43;;;7.72;;
11823;SDS011;5969;50.780;7.726;2023-02-08T05:41:34;11.82;;;7.90;;
11823;SDS011;5969;50.780;7.726;2023-02-08T05:44:02;11.23;;;7.75;;
11823;SDS011;5969;50.780;7.726;2023-02-08T05:46:29;11.05;;;7.65;;
11823;SDS011;5969;50.780;7.726;2023-02-08T05:48:59;10.80;;;7.63;;
11823;SDS011;5969;50.780;7.726;2023-02-08T05:51:26;10.23;;;7.15;;
11823;SDS011;5969;50.780;7.726;2023-02-08T05:53:54;9.77;;;7.30;;
11823;SDS011;5969;50.780;7.726;2023-02-08T05:56:22;11.15;;;7.95;;
11823;SDS011;5969;50.780;7.726;2023-02-08T05:58:52;13.98;;;9.43;;
11823;SDS011;5969;50.780;7.726;2023-02-08T06:01:20;12.88;;;8.30;;
11823;SDS011;5969;50.780;7.726;2023-02-08T06:03:48;13.43;;;9.27;;
11823;SDS011;5969;50.780;7.726;2023-02-08T06:06:17;12.70;;;8.65;;
11823;SDS011;5969;50.780;7.726;2023-02-08T06:08:45;11.75;;;8.65;;
11823;SDS011;5969;50.780;7.726;2023-02-08T06:11:15;11.73;;;7.50;;
11823;SDS011;5969;50.780;7.726;2023-02-08T06:13:44;11.35;;;8.50;;
11823;SDS011;5969;50.780;7.726;2023-02-08T06:16:13;10.88;;;7.13;;
11823;SDS011;5969;50.780;7.726;2023-02-08T06:18:41;11.00;;;8.38;;
11823;SDS011;5969;50.780;7.726;2023-02-08T06:21:08;10.63;;;7.80;;
11823;SDS011;5969;50.780;7.726;2023-02-08T06:23:38;12.48;;;8.23;;
11823;SDS011;5969;50.780;7.726;2023-02-08T06:26:06;11.10;;;7.60;;
11823;SDS011;5969;50.780;7.726;2023-02-08T06:28:38;11.85;;;7.47;;
11823;SDS011;5969;50.780;7.726;2023-02-08T06:31:06;11.20;;;8.02;;
11823;SDS011;5969;50.780;7.726;2023-02-08T06:33:35;11.80;;;7.38;;
11823;SDS011;5969;50.780;7.726;2023-02-08T06:36:06;13.80;;;7.47;;
11823;SDS011;5969;50.780;7.726;2023-02-08T06:38:34;12.90;;;7.88;;
11823;SDS011;5969;50.780;7.726;2023-02-08T06:41:05;12.98;;;8.10;;
11823;SDS011;5969;50.780;7.726;2023-02-08T06:43:33;14.43;;;8.10;;
11823;SDS011;5969;50.780;7.726;2023-02-08T06:46:01;11.80;;;7.40;;
11823;SDS011;5969;50.780;7.726;2023-02-08T06:48:32;12.65;;;7.90;;
11823;SDS011;5969;50.780;7.726;2023-02-08T06:51:00;10.73;;;7.65;;
11823;SDS011;5969;50.780;7.726;2023-02-08T06:53:30;10.70;;;7.43;;
11823;SDS011;5969;50.780;7.726;2023-02-08T06:55:58;12.45;;;7.95;;
11823;SDS011;5969;50.780;7.726;2023-02-08T06:58:27;11.55;;;8.13;;
11823;SDS011;5969;50.780;7.726;2023-02-08T07:00:58;11.80;;;7.95;;
11823;SDS011;5969;50.780;7.726;2023-02-08T07:03:26;11.35;;;7.45;;
11823;SDS011;5969;50.780;7.726;2023-02-08T07:05:54;11.13;;;8.40;;
11823;SDS011;5969;50.780;7.726;2023-02-08T07:08:24;11.02;;;7.50;;
11823;SDS011;5969;50.780;7.726;2023-02-08T07:10:52;11.05;;;7.80;;
11823;SDS011;5969;50.780;7.726;2023-02-08T07:13:22;11.63;;;8.48;;
11823;SDS011;5969;50.780;7.726;2023-02-08T07:15:54;12.25;;;7.78;;
11823;SDS011;5969;50.780;7.726;2023-02-08T07:18:23;12.10;;;7.70;;
11823;SDS011;5969;50.780;7.726;2023-02-08T07:21:03;13.10;;;7.72;;
11823;SDS011;5969;50.780;7.726;2023-02-08T07:23:31;11.05;;;7.43;;
11823;SDS011;5969;50.780;7.726;2023-02-08T07:26:04;11.07;;;7.53;;
11823;SDS011;5969;50.780;7.726;2023-02-08T07:28:33;10.18;;;7.60;;
11823;SDS011;5969;50.780;7.726;2023-02-08T07:31:06;10.52;;;7.32;;
11823;SDS011;5969;50.780;7.726;2023-02-08T07:33:35;10.40;;;7.30;;
11823;SDS011;5969;50.780;7.726;2023-02-08T07:36:08;10.93;;;7.43;;
11823;SDS011;5969;50.780;7.726;2023-02-08T07:38:38;10.45;;;6.85;;
11823;SDS011;5969;50.780;7.726;2023-02-08T07:41:07;12.35;;;7.30;;
11823;SDS011;5969;50.780;7.726;2023-02-08T07:43:37;10.60;;;7.32;;
11823;SDS011;5969;50.780;7.726;2023-02-08T07:46:08;12.43;;;8.05;;
11823;SDS011;5969;50.780;7.726;2023-02-08T07:48:37;10.48;;;7.30;;
11823;SDS011;5969;50.780;7.726;2023-02-08T07:51:05;12.63;;;8.30;;
11823;SDS011;5969;50.780;7.726;2023-02-08T07:53:35;11.60;;;7.57;;
11823;SDS011;5969;50.780;7.726;2023-02-08T07:56:05;11.13;;;7.43;;
11823;SDS011;5969;50.780;7.726;2023-02-08T07:58:34;8.45;;;6.75;;
11823;SDS011;5969;50.780;7.726;2023-02-08T08:01:03;12.05;;;8.20;;
11823;SDS011;5969;50.780;7.726;2023-02-08T08:03:34;11.43;;;7.40;;
11823;SDS011;5969;50.780;7.726;2023-02-08T08:06:05;10.15;;;7.60;;
11823;SDS011;5969;50.780;7.726;2023-02-08T08:08:33;9.80;;;6.95;;
11823;SDS011;5969;50.780;7.726;2023-02-08T08:11:05;10.35;;;7.32;;
11823;SDS011;5969;50.780;7.726;2023-02-08T08:13:38;10.18;;;7.18;;
11823;SDS011;5969;50.780;7.726;2023-02-08T08:16:07;11.02;;;7.30;;
11823;SDS011;5969;50.780;7.726;2023-02-08T08:18:39;9.88;;;7.22;;
11823;SDS011;5969;50.780;7.726;2023-02-08T08:21:06;10.50;;;6.38;;
11823;SDS011;5969;50.780;7.726;2023-02-08T08:23:34;9.80;;;7.25;;
11823;SDS011;5969;50.780;7.726;2023-02-08T08:26:05;10.45;;;7.13;;
11823;SDS011;5969;50.780;7.726;2023-02-08T08:28:33;11.18;;;7.45;;
11823;SDS011;5969;50.780;7.726;2023-02-08T08:31:07;10.35;;;6.82;;
11823;SDS011;5969;50.780;7.726;2023-02-08T08:33:36;8.95;;;6.82;;
11823;SDS011;5969;50.780;7.726;2023-02-08T08:36:05;9.05;;;6.57;;
11823;SDS011;5969;50.780;7.726;2023-02-08T08:38:34;10.43;;;6.53;;
11823;SDS011;5969;50.780;7.726;2023-02-08T08:41:05;10.88;;;6.97;;
11823;SDS011;5969;50.780;7.726;2023-02-08T08:43:39;8.05;;;6.43;;
11823;SDS011;5969;50.780;7.726;2023-02-08T08:46:06;9.60;;;7.07;;
11823;SDS011;5969;50.780;7.726;2023-02-08T08:48:35;12.13;;;7.18;;
11823;SDS011;5969;50.780;7.726;2023-02-08T08:51:05;9.23;;;6.60;;
11823;SDS011;5969;50.780;7.726;2023-02-08T08:53:34;11.40;;;7.22;;
11823;SDS011;5969;50.780;7.726;2023-02-08T08:56:02;9.05;;;6.50;;
11823;SDS011;5969;50.780;7.726;2023-02-08T08:58:30;10.68;;;6.82;;
11823;SDS011;5969;50.780;7.726;2023-02-08T09:01:01;11.25;;;6.88;;
11823;SDS011;5969;50.780;7.726;2023-02-08T09:03:28;12.68;;;7.63;;
11823;SDS011;5969;50.780;7.726;2023-02-08T09:05:58;9.55;;;7.22;;
11823;SDS011;5969;50.780;7.726;2023-02-08T09:08:30;10.82;;;7.65;;
11823;SDS011;5969;50.780;7.726;2023-02-08T09:11:03;9.00;;;6.85;;
11823;SDS011;5969;50.780;7.726;2023-02-08T09:13:31;9.05;;;6.72;;
11823;SDS011;5969;50.780;7.726;2023-02-08T09:15:58;12.15;;;7.35;;
11823;SDS011;5969;50.780;7.726;2023-02-08T09:18:30;9.55;;;7.07;;
11823;SDS011;5969;50.780;7.726;2023-02-08T09:20:57;8.63;;;6.82;;
11823;SDS011;5969;50.780;7.726;2023-02-08T09:23:25;8.95;;;7.10;;
11823;SDS011;5969;50.780;7.726;2023-02-08T09:25:54;10.10;;;7.05;;
11823;SDS011;5969;50.780;7.726;2023-02-08T09:28:24;9.80;;;6.95;;
11823;SDS011;5969;50.780;7.726;2023-02-08T09:30:52;11.02;;;7.18;;
11823;SDS011;5969;50.780;7.726;2023-02-08T09:33:19;9.07;;;6.68;;
11823;SDS011;5969;50.780;7.726;2023-02-08T09:35:47;11.73;;;7.97;;
11823;SDS011;5969;50.780;7.726;2023-02-08T09:38:14;10.23;;;6.90;;
11823;SDS011;5969;50.780;7.726;2023-02-08T09:40:44;10.80;;;6.95;;
11823;SDS011;5969;50.780;7.726;2023-02-08T09:43:25;8.43;;;6.72;;
11823;SDS011;5969;50.780;7.726;2023-02-08T09:45:59;9.02;;;6.75;;
11823;SDS011;5969;50.780;7.726;2023-02-08T09:48:32;8.98;;;6.90;;
11823;SDS011;5969;50.780;7.726;2023-02-08T09:51:03;10.50;;;6.63;;
11823;SDS011;5969;50.780;7.726;2023-02-08T09:53:38;11.38;;;6.75;;
11823;SDS011;5969;50.780;7.726;2023-02-08T09:56:10;9.35;;;7.10;;
11823;SDS011;5969;50.780;7.726;2023-02-08T09:58:42;10.50;;;7.25;;
11823;SDS011;5969;50.780;7.726;2023-02-08T10:01:12;10.68;;;7.63;;
11823;SDS011;5969;50.780;7.726;2023-02-08T10:03:46;9.85;;;7.07;;
11823;SDS011;5969;50.780;7.726;2023-02-08T10:06:19;8.93;;;7.35;;
11823;SDS011;5969;50.780;7.726;2023-02-08T10:08:48;8.75;;;6.50;;
11823;SDS011;5969;50.780;7.726;2023-02-08T10:11:22;9.10;;;7.22;;
11823;SDS011;5969;50.780;7.726;2023-02-08T10:14:16;10.45;;;6.63;;
11823;SDS011;5969;50.780;7.726;2023-02-08T10:16:58;8.30;;;6.07;;
11823;SDS011;5969;50.780;7.726;2023-02-08T10:19:41;8.65;;;6.18;;
11823;SDS011;5969;50.780;7.726;2023-02-08T10:22:24;9.02;;;6.57;;
11823;SDS011;5969;50.780;7.726;2023-02-08T10:28:01;8.75;;;6.25;;
11823;SDS011;5969;50.780;7.726;2023-02-08T10:30:40;9.23;;;6.25;;
11823;SDS011;5969;50.780;7.726;2023-02-08T10:33:17;8.10;;;6.30;;
11823;SDS011;5969;50.780;7.726;2023-02-08T10:35:52;9.88;;;6.18;;
11823;SDS011;5969;50.780;7.726;2023-02-08T10:38:25;9.00;;;6.40;;
11823;SDS011;5969;50.780;7.726;2023-02-08T10:40:54;8.05;;;6.10;;
11823;SDS011;5969;50.780;7.726;2023-02-08T10:43:32;10.55;;;6.18;;
11823;SDS011;5969;50.780;7.726;2023-02-08T10:46:07;7.50;;;5.80;;
11823;SDS011;5969;50.780;7.726;2023-02-08T10:48:43;8.35;;;6.70;;
11823;SDS011;5969;50.780;7.726;2023-02-08T10:51:19;8.50;;;6.68;;
11823;SDS011;5969;50.780;7.726;2023-02-08T10:53:47;7.32;;;5.85;;
11823;SDS011;5969;50.780;7.726;2023-02-08T10:56:21;8.30;;;6.18;;
11823;SDS011;5969;50.780;7.726;2023-02-08T10:59:13;8.43;;;6.57;;
11823;SDS011;5969;50.780;7.726;2023-02-08T11:01:44;7.00;;;5.57;;
11823;SDS011;5969;50.780;7.726;2023-02-08T11:04:13;6.72;;;5.78;;
11823;SDS011;5969;50.780;7.726;2023-02-08T11:06:42;8.77;;;5.80;;
11823;SDS011;5969;50.780;7.726;2023-02-08T11:09:23;7.45;;;5.95;;
11823;SDS011;5969;50.780;7.726;2023-02-08T11:11:53;8.27;;;5.80;;
11823;SDS011;5969;50.780;7.726;2023-02-08T11:14:26;7.53;;;5.68;;
11823;SDS011;5969;50.780;7.726;2023-02-08T11:16:58;7.47;;;5.85;;
11823;SDS011;5969;50.780;7.726;2023-02-08T11:19:30;6.07;;;5.00;;
11823;SDS011;5969;50.780;7.726;2023-02-08T11:22:00;10.10;;;5.90;;
11823;SDS011;5969;50.780;7.726;2023-02-08T11:24:31;8.60;;;5.00;;
11823;SDS011;5969;50.780;7.726;2023-02-08T11:27:13;5.35;;;3.78;;
11823;SDS011;5969;50.780;7.726;2023-02-08T11:29:44;4.43;;;3.50;;
11823;SDS011;5969;50.780;7.726;2023-02-08T11:32:15;2.50;;;2.00;;
11823;SDS011;5969;50.780;7.726;2023-02-08T11:34:44;4.55;;;2.40;;
11823;SDS011;5969;50.780;7.726;2023-02-08T11:37:13;3.70;;;2.42;;
11823;SDS011;5969;50.780;7.726;2023-02-08T11:39:48;3.22;;;2.60;;
11823;SDS011;5969;50.780;7.726;2023-02-08T11:42:18;5.78;;;4.63;;
11823;SDS011;5969;50.780;7.726;2023-02-08T11:44:50;4.65;;;4.05;;
11823;SDS011;5969;50.780;7.726;2023-02-08T11:47:22;5.45;;;4.40;;
11823;SDS011;5969;50.780;7.726;2023-02-08T11:49:53;5.93;;;4.18;;
11823;SDS011;5969;50.780;7.726;2023-02-08T11:52:23;4.82;;;4.38;;
11823;SDS011;5969;50.780;7.726;2023-02-08T11:54:53;4.03;;;3.63;;
11823;SDS011;5969;50.780;7.726;2023-02-08T11:57:38;4.28;;;2.95;;
11823;SDS011;5969;50.780;7.726;2023-02-08T12:00:22;2.47;;;2.15;;
11823;SDS011;5969;50.780;7.726;2023-02-08T12:02:51;1.73;;;1.63;;
11823;SDS011;5969;50.780;7.726;2023-02-08T12:05:26;3.60;;;1.90;;
11823;SDS011;5969;50.780;7.726;2023-02-08T12:08:03;2.00;;;1.67;;
11823;SDS011;5969;50.780;7.726;2023-02-08T12:10:43;1.80;;;1.70;;
11823;SDS011;5969;50.780;7.726;2023-02-08T12:13:33;2.10;;;1.73;;
11823;SDS011;5969;50.780;7.726;2023-02-08T12:16:25;2.20;;;2.00;;
11823;SDS011;5969;50.780;7.726;2023-02-08T12:19:26;3.63;;;3.33;;
11823;SDS011;5969;50.780;7.726;2023-02-08T12:22:05;2.50;;;2.10;;
11823;SDS011;5969;50.780;7.726;2023-02-08T12:24:39;1.85;;;1.60;;
11823;SDS011;5969;50.780;7.726;2023-02-08T12:27:18;1.77;;;1.60;;
11823;SDS011;5969;50.780;7.726;2023-02-08T12:29:59;2.47;;;2.28;;
11823;SDS011;5969;50.780;7.726;2023-02-08T12:32:37;4.65;;;3.78;;
11823;SDS011;5969;50.780;7.726;2023-02-08T12:38:34;2.30;;;2.03;;
11823;SDS011;5969;50.780;7.726;2023-02-08T12:41:31;3.13;;;2.83;;
11823;SDS011;5969;50.780;7.726;2023-02-08T12:44:06;1.92;;;1.73;;
11823;SDS011;5969;50.780;7.726;2023-02-08T12:46:55;1.92;;;1.70;;
11823;SDS011;5969;50.780;7.726;2023-02-08T12:49:33;2.17;;;1.80;;
11823;SDS011;5969;50.780;7.726;2023-02-08T12:52:13;2.65;;;2.05;;
11823;SDS011;5969;50.780;7.726;2023-02-08T12:54:47;2.08;;;1.88;;
11823;SDS011;5969;50.780;7.726;2023-02-08T12:57:20;1.70;;;1.60;;
11823;SDS011;5969;50.780;7.726;2023-02-08T12:59:51;2.83;;;1.80;;
11823;SDS011;5969;50.780;7.726;2023-02-08T13:02:29;2.03;;;1.70;;
11823;SDS011;5969;50.780;7.726;2023-02-08T13:05:12;1.90;;;1.80;;
11823;SDS011;5969;50.780;7.726;2023-02-08T13:07:45;2.20;;;1.95;;
11823;SDS011;5969;50.780;7.726;2023-02-08T13:10:17;1.95;;;1.70;;
11823;SDS011;5969;50.780;7.726;2023-02-08T13:12:53;1.80;;;1.70;;
11823;SDS011;5969;50.780;7.726;2023-02-08T13:15:23;1.80;;;1.70;;
11823;SDS011;5969;50.780;7.726;2023-02-08T13:17:56;2.25;;;1.73;;
11823;SDS011;5969;50.780;7.726;2023-02-08T13:20:30;1.80;;;1.70;;
11823;SDS011;5969;50.780;7.726;2023-02-08T13:23:05;2.65;;;1.80;;
11823;SDS011;5969;50.780;7.726;2023-02-08T13:25:40;1.83;;;1.60;;
11823;SDS011;5969;50.780;7.726;2023-02-08T13:28:15;2.00;;;1.80;;
11823;SDS011;5969;50.780;7.726;2023-02-08T13:30:45;2.15;;;1.60;;
11823;SDS011;5969;50.780;7.726;2023-02-08T13:33:26;2.03;;;1.90;;
11823;SDS011;5969;50.780;7.726;2023-02-08T13:36:00;4.35;;;3.90;;
11823;SDS011;5969;50.780;7.726;2023-02-08T13:38:29;5.32;;;4.82;;
11823;SDS011;5969;50.780;7.726;2023-02-08T13:41:06;2.10;;;1.90;;
11823;SDS011;5969;50.780;7.726;2023-02-08T13:43:45;2.10;;;1.88;;
11823;SDS011;5969;50.780;7.726;2023-02-08T13:46:17;1.80;;;1.70;;
11823;SDS011;5969;50.780;7.726;2023-02-08T13:48:46;2.03;;;1.80;;
11823;SDS011;5969;50.780;7.726;2023-02-08T13:54:27;2.17;;;1.98;;
11823;SDS011;5969;50.780;7.726;2023-02-08T13:56:54;2.40;;;2.20;;
11823;SDS011;5969;50.780;7.726;2023-02-08T13:59:28;3.10;;;2.47;;
11823;SDS011;5969;50.780;7.726;2023-02-08T14:08:18;2.28;;;1.90;;
11823;SDS011;5969;50.780;7.726;2023-02-08T14:10:59;2.85;;;2.17;;
11823;SDS011;5969;50.780;7.726;2023-02-08T14:13:30;3.17;;;2.13;;
11823;SDS011;5969;50.780;7.726;2023-02-08T14:18:56;2.95;;;2.15;;
11823;SDS011;5969;50.780;7.726;2023-02-08T14:21:28;2.20;;;2.00;;
11823;SDS011;5969;50.780;7.726;2023-02-08T14:23:59;2.65;;;2.03;;
11823;SDS011;5969;50.780;7.726;2023-02-08T14:26:31;2.30;;;2.10;;
11823;SDS011;5969;50.780;7.726;2023-02-08T14:29:00;2.03;;;1.88;;
11823;SDS011;5969;50.780;7.726;2023-02-08T14:31:37;2.45;;;2.03;;
11823;SDS011;5969;50.780;7.726;2023-02-08T14:34:20;2.25;;;2.05;;
11823;SDS011;5969;50.780;7.726;2023-02-08T14:37:02;2.60;;;2.20;;
11823;SDS011;5969;50.780;7.726;2023-02-08T14:39:32;3.28;;;2.40;;
11823;SDS011;5969;50.780;7.726;2023-02-08T14:42:03;2.88;;;2.38;;
11823;SDS011;5969;50.780;7.726;2023-02-08T14:50:36;2.20;;;2.00;;
11823;SDS011;5969;50.780;7.726;2023-02-08T14:53:15;2.85;;;2.58;;
11823;SDS011;5969;50.780;7.726;2023-02-08T14:55:51;2.90;;;2.50;;
11823;SDS011;5969;50.780;7.726;2023-02-08T14:58:29;2.40;;;2.17;;
11823;SDS011;5969;50.780;7.726;2023-02-08T15:01:01;2.83;;;2.45;;
11823;SDS011;5969;50.780;7.726;2023-02-08T15:03:35;6.43;;;5.10;;
11823;SDS011;5969;50.780;7.726;2023-02-08T15:06:15;2.35;;;2.15;;
11823;SDS011;5969;50.780;7.726;2023-02-08T15:08:55;2.90;;;2.60;;
11823;SDS011;5969;50.780;7.726;2023-02-08T15:11:24;3.50;;;3.08;;
11823;SDS011;5969;50.780;7.726;2023-02-08T15:13:57;3.75;;;3.25;;
11823;SDS011;5969;50.780;7.726;2023-02-08T15:16:28;3.63;;;3.10;;
11823;SDS011;5969;50.780;7.726;2023-02-08T15:19:02;3.53;;;2.50;;
11823;SDS011;5969;50.780;7.726;2023-02-08T15:21:33;3.00;;;2.63;;
11823;SDS011;5969;50.780;7.726;2023-02-08T15:24:03;3.38;;;2.63;;
11823;SDS011;5969;50.780;7.726;2023-02-08T15:26:42;3.58;;;3.08;;
11823;SDS011;5969;50.780;7.726;2023-02-08T15:29:18;4.47;;;3.75;;
11823;SDS011;5969;50.780;7.726;2023-02-08T15:31:48;4.30;;;3.58;;
11823;SDS011;5969;50.780;7.726;2023-02-08T15:34:17;4.18;;;3.00;;
11823;SDS011;5969;50.780;7.726;2023-02-08T15:36:47;3.58;;;2.60;;
11823;SDS011;5969;50.780;7.726;2023-02-08T15:39:23;3.72;;;2.92;;
11823;SDS011;5969;50.780;7.726;2023-02-08T15:41:56;11.35;;;8.45;;
11823;SDS011;5969;50.780;7.726;2023-02-08T15:44:27;8.10;;;6.00;;
11823;SDS011;5969;50.780;7.726;2023-02-08T15:46:56;4.20;;;3.35;;
11823;SDS011;5969;50.780;7.726;2023-02-08T15:49:27;3.70;;;3.40;;
11823;SDS011;5969;50.780;7.726;2023-02-08T15:51:57;3.40;;;3.10;;